Dentsville, Maryland
Current Conditions -  °F | °C
As of 10:56 PM on Tuesday 27 Jan 2015 (Local Time) from KNYG Reporting Station
Clear Clear  
Wind Chill: 20°   Ceiling: Unl
Heat Index: 30°   Visibility: NA
Dew Point: 15°   Wind: 13mph
Humidity: 54%   Direction: 350°N
Pressure: 29.99"   Gusts: 24mph
Location:  38.5166°N, 76.9981°W
Report Text: KNYG 280356Z AUTO 35011G21KT CLR M01/M09 A2999 RMK AO2 SLP155 T10111094 $
Loading
Personal Weather Stations






























Interactive Weather Map New forecast layout! Learn more

10-Day Weather Forecast

Advertisements
Track Severe Weather on mobile